CCA8654 ZBCD-ZYCC
Flight info
| Callsign | CCA8654 |
|---|---|
| Flight time | 1h 15m |
| Altitude | 24600 |
| Route | LELOG B334 TGO B341 BUTET BUTE1M |
| Aircraft | B738/M-SDE2E3FGHIRWXY/LB1 |
Departure
| Time | 2026-04-24 07:50 |
|---|---|
| Airport | Chengde Puning Airport (ZBCD) |
Arrival
| Time | 2026-04-24 09:06 |
|---|---|
| Airport | Changchun Longjia International Airport (ZYCC) |
| Time | Latitude | Longitude | Altitude | Speed | Heading |
|---|---|---|---|---|---|
| 2026-04-24 07:40 | 41.12517 | 118.07325 | 2298 ft | 0 kts | 20° |
| 2026-04-24 07:44 | 41.12515 | 118.07324 | 2297 ft | 1 kts | 21° |
| 2026-04-24 07:44 | 41.12507 | 118.07317 | 2297 ft | 1 kts | 33° |
| 2026-04-24 07:45 | 41.12494 | 118.07313 | 2297 ft | 2 kts | 352° |
| 2026-04-24 07:45 | 41.12479 | 118.07320 | 2297 ft | 2 kts | 324° |
| 2026-04-24 07:45 | 41.12469 | 118.07334 | 2296 ft | 2 kts | 296° |
| 2026-04-24 07:45 | 41.12466 | 118.07343 | 2296 ft | 1 kts | 284° |
| 2026-04-24 07:46 | 41.12465 | 118.07348 | 2295 ft | 0 kts | 287° |
| 2026-04-24 07:48 | 41.12465 | 118.07347 | 2295 ft | 0 kts | 287° |
| 2026-04-24 07:48 | 41.12470 | 118.07327 | 2297 ft | 5 kts | 285° |
| 2026-04-24 07:48 | 41.12461 | 118.07235 | 2294 ft | 15 kts | 212° |
| 2026-04-24 07:48 | 41.12331 | 118.07168 | 2285 ft | 20 kts | 208° |
| 2026-04-24 07:49 | 41.12333 | 118.06977 | 2270 ft | 25 kts | 290° |
| 2026-04-24 07:49 | 41.12410 | 118.06712 | 2233 ft | 33 kts | 291° |
| 2026-04-24 07:49 | 41.12492 | 118.06419 | 2179 ft | 30 kts | 290° |
| 2026-04-24 07:49 | 41.12561 | 118.06184 | 2124 ft | 22 kts | 290° |
| 2026-04-24 07:50 | 41.12566 | 118.06102 | 2105 ft | 5 kts | 162° |
| 2026-04-24 07:50 | 41.12564 | 118.06099 | 2104 ft | 0 kts | 111° |
| 2026-04-24 07:50 | 41.12485 | 118.06397 | 2176 ft | 68 kts | 110° |
| 2026-04-24 07:50 | 41.12252 | 118.07270 | 2278 ft | 135 kts | 109° |
| 2026-04-24 07:51 | 41.11853 | 118.08688 | 2491 ft | 183 kts | 109° |
| 2026-04-24 07:51 | 41.11403 | 118.10344 | 3194 ft | 194 kts | 98° |
| 2026-04-24 07:51 | 41.11530 | 118.12009 | 3979 ft | 189 kts | 59° |
| 2026-04-24 07:51 | 41.12541 | 118.13172 | 4326 ft | 206 kts | 21° |
| 2026-04-24 07:52 | 41.13930 | 118.13893 | 4843 ft | 223 kts | 25° |
| 2026-04-24 07:52 | 41.15255 | 118.14999 | 5433 ft | 236 kts | 37° |
| 2026-04-24 07:52 | 41.16536 | 118.16498 | 5982 ft | 253 kts | 42° |
| 2026-04-24 07:52 | 41.17835 | 118.18154 | 6520 ft | 269 kts | 42° |
| 2026-04-24 07:53 | 41.19202 | 118.19894 | 7253 ft | 276 kts | 41° |
| 2026-04-24 07:53 | 41.20587 | 118.21630 | 8069 ft | 280 kts | 41° |
| 2026-04-24 07:53 | 41.22020 | 118.23402 | 8876 ft | 284 kts | 40° |
| 2026-04-24 07:53 | 41.23465 | 118.25185 | 9669 ft | 288 kts | 40° |
| 2026-04-24 07:54 | 41.24948 | 118.27018 | 10341 ft | 298 kts | 40° |
| 2026-04-24 07:54 | 41.26503 | 118.28942 | 10805 ft | 314 kts | 40° |
| 2026-04-24 07:54 | 41.28127 | 118.30957 | 11250 ft | 331 kts | 40° |
| 2026-04-24 07:54 | 41.29844 | 118.33088 | 11695 ft | 348 kts | 40° |
| 2026-04-24 07:55 | 41.31650 | 118.35330 | 12155 ft | 364 kts | 40° |
| 2026-04-24 07:55 | 41.33552 | 118.37695 | 12609 ft | 380 kts | 40° |
| 2026-04-24 07:55 | 41.35513 | 118.40135 | 13012 ft | 397 kts | 40° |
| 2026-04-24 07:55 | 41.37545 | 118.42670 | 13479 ft | 411 kts | 40° |
| 2026-04-24 07:56 | 41.39669 | 118.45322 | 14203 ft | 419 kts | 40° |
| 2026-04-24 07:56 | 41.41772 | 118.47952 | 15048 ft | 423 kts | 40° |
| 2026-04-24 07:56 | 41.43945 | 118.50671 | 15845 ft | 428 kts | 40° |
| 2026-04-24 07:56 | 41.46091 | 118.53358 | 16653 ft | 432 kts | 40° |
| 2026-04-24 07:57 | 41.48299 | 118.56119 | 17446 ft | 437 kts | 40° |
| 2026-04-24 07:57 | 41.50520 | 118.58898 | 18197 ft | 442 kts | 39° |
| 2026-04-24 07:57 | 41.52758 | 118.61700 | 18938 ft | 446 kts | 39° |
| 2026-04-24 07:57 | 41.55013 | 118.64524 | 19695 ft | 450 kts | 39° |
| 2026-04-24 07:58 | 41.57324 | 118.67419 | 20369 ft | 456 kts | 40° |
| 2026-04-24 07:58 | 41.59621 | 118.70303 | 21086 ft | 460 kts | 40° |
| 2026-04-24 07:58 | 41.61971 | 118.73259 | 21839 ft | 463 kts | 40° |
| 2026-04-24 07:58 | 41.64316 | 118.76213 | 22415 ft | 469 kts | 40° |
| 2026-04-24 07:59 | 41.66677 | 118.79189 | 23141 ft | 471 kts | 40° |
| 2026-04-24 07:59 | 41.69064 | 118.82208 | 24027 ft | 470 kts | 40° |
| 2026-04-24 07:59 | 41.71431 | 118.85204 | 24478 ft | 473 kts | 40° |
| 2026-04-24 07:59 | 41.73824 | 118.88236 | 24552 ft | 474 kts | 40° |
| 2026-04-24 08:00 | 41.76195 | 118.91241 | 24554 ft | 469 kts | 40° |
| 2026-04-24 08:00 | 41.78527 | 118.94201 | 24552 ft | 465 kts | 40° |
| 2026-04-24 08:00 | 41.80870 | 118.97172 | 24548 ft | 465 kts | 40° |
| 2026-04-24 08:00 | 41.83249 | 119.00190 | 24542 ft | 466 kts | 40° |
| 2026-04-24 08:01 | 41.85565 | 119.03135 | 24541 ft | 464 kts | 40° |
| 2026-04-24 08:01 | 41.87929 | 119.06142 | 24540 ft | 465 kts | 39° |
| 2026-04-24 08:01 | 41.90258 | 119.09106 | 24539 ft | 466 kts | 40° |
| 2026-04-24 08:01 | 41.92601 | 119.12096 | 24540 ft | 465 kts | 40° |
| 2026-04-24 08:02 | 41.94944 | 119.15090 | 24537 ft | 466 kts | 40° |
| 2026-04-24 08:02 | 41.97300 | 119.18104 | 24539 ft | 466 kts | 40° |
| 2026-04-24 08:02 | 41.99642 | 119.21104 | 24542 ft | 465 kts | 39° |
| 2026-04-24 08:02 | 42.01975 | 119.24096 | 24537 ft | 466 kts | 39° |
| 2026-04-24 08:03 | 42.04319 | 119.27108 | 24533 ft | 466 kts | 39° |
| 2026-04-24 08:03 | 42.06658 | 119.30113 | 24532 ft | 466 kts | 39° |
| 2026-04-24 08:03 | 42.09001 | 119.33124 | 24536 ft | 468 kts | 39° |
| 2026-04-24 08:03 | 42.11323 | 119.36111 | 24536 ft | 466 kts | 39° |
| 2026-04-24 08:04 | 42.13686 | 119.39156 | 24536 ft | 467 kts | 39° |
| 2026-04-24 08:04 | 42.16025 | 119.42172 | 24539 ft | 467 kts | 39° |
| 2026-04-24 08:04 | 42.18352 | 119.45177 | 24538 ft | 468 kts | 39° |
| 2026-04-24 08:04 | 42.20692 | 119.48204 | 24539 ft | 468 kts | 39° |
| 2026-04-24 08:05 | 42.23053 | 119.51259 | 24543 ft | 468 kts | 39° |
| 2026-04-24 08:05 | 42.25388 | 119.54283 | 24540 ft | 467 kts | 39° |
| 2026-04-24 08:05 | 42.27737 | 119.57327 | 24541 ft | 468 kts | 39° |
| 2026-04-24 08:05 | 42.30058 | 119.60337 | 24545 ft | 468 kts | 39° |
| 2026-04-24 08:06 | 42.32397 | 119.63375 | 24547 ft | 468 kts | 39° |
| 2026-04-24 08:06 | 42.34737 | 119.66418 | 24545 ft | 468 kts | 40° |
| 2026-04-24 08:06 | 42.37085 | 119.69475 | 24547 ft | 469 kts | 40° |
| 2026-04-24 08:06 | 42.39427 | 119.72529 | 24546 ft | 469 kts | 40° |
| 2026-04-24 08:07 | 42.41782 | 119.75602 | 24541 ft | 469 kts | 40° |
| 2026-04-24 08:07 | 42.44137 | 119.78681 | 24546 ft | 470 kts | 40° |
| 2026-04-24 08:07 | 42.46473 | 119.81738 | 24543 ft | 469 kts | 40° |
| 2026-04-24 08:07 | 42.48791 | 119.84776 | 24543 ft | 468 kts | 40° |
| 2026-04-24 08:08 | 42.51128 | 119.87842 | 24539 ft | 469 kts | 40° |
| 2026-04-24 08:08 | 42.53474 | 119.90923 | 24537 ft | 469 kts | 40° |
| 2026-04-24 08:08 | 42.55802 | 119.93980 | 24536 ft | 470 kts | 40° |
| 2026-04-24 08:09 | 42.60500 | 120.00166 | 24536 ft | 469 kts | 40° |
| 2026-04-24 08:09 | 42.62834 | 120.03245 | 24535 ft | 469 kts | 40° |
| 2026-04-24 08:09 | 42.65143 | 120.06297 | 24530 ft | 468 kts | 40° |
| 2026-04-24 08:09 | 42.67479 | 120.09384 | 24534 ft | 470 kts | 40° |
| 2026-04-24 08:10 | 42.69817 | 120.12474 | 24535 ft | 470 kts | 40° |
| 2026-04-24 08:10 | 42.72147 | 120.15557 | 24530 ft | 469 kts | 40° |
| 2026-04-24 08:10 | 42.74499 | 120.18673 | 24527 ft | 468 kts | 39° |
| 2026-04-24 08:10 | 42.76830 | 120.21764 | 24524 ft | 468 kts | 40° |
| 2026-04-24 08:11 | 42.79128 | 120.24815 | 24527 ft | 469 kts | 40° |
| 2026-04-24 08:11 | 42.81485 | 120.27949 | 24518 ft | 469 kts | 40° |
| 2026-04-24 08:11 | 42.83805 | 120.31042 | 24523 ft | 468 kts | 39° |
| 2026-04-24 08:11 | 42.86115 | 120.34125 | 24524 ft | 469 kts | 40° |
| 2026-04-24 08:12 | 42.88452 | 120.37245 | 24520 ft | 470 kts | 40° |
| 2026-04-24 08:12 | 42.90768 | 120.40343 | 24519 ft | 468 kts | 40° |
| 2026-04-24 08:12 | 42.93047 | 120.43521 | 24516 ft | 472 kts | 44° |
| 2026-04-24 08:12 | 42.95071 | 120.47073 | 24518 ft | 475 kts | 51° |
| 2026-04-24 08:13 | 42.96854 | 120.50870 | 24516 ft | 477 kts | 55° |
| 2026-04-24 08:13 | 42.98495 | 120.54771 | 24516 ft | 477 kts | 57° |
| 2026-04-24 08:13 | 43.00052 | 120.58754 | 24517 ft | 480 kts | 58° |
| 2026-04-24 08:13 | 43.01579 | 120.62847 | 24513 ft | 481 kts | 59° |
| 2026-04-24 08:14 | 43.03054 | 120.66892 | 24512 ft | 481 kts | 60° |
| 2026-04-24 08:14 | 43.04541 | 120.71016 | 24514 ft | 482 kts | 60° |
| 2026-04-24 08:14 | 43.06010 | 120.75120 | 24515 ft | 482 kts | 60° |
| 2026-04-24 08:14 | 43.07460 | 120.79191 | 24513 ft | 483 kts | 60° |
| 2026-04-24 08:15 | 43.08927 | 120.83325 | 24512 ft | 483 kts | 60° |
| 2026-04-24 08:15 | 43.10387 | 120.87451 | 24511 ft | 484 kts | 60° |
| 2026-04-24 08:15 | 43.11858 | 120.91613 | 24512 ft | 485 kts | 60° |
| 2026-04-24 08:15 | 43.13322 | 120.95762 | 24512 ft | 484 kts | 60° |
| 2026-04-24 08:16 | 43.14774 | 120.99884 | 24510 ft | 486 kts | 60° |
| 2026-04-24 08:16 | 43.16233 | 121.04037 | 24511 ft | 485 kts | 61° |
| 2026-04-24 08:16 | 43.17697 | 121.08207 | 24512 ft | 485 kts | 60° |
| 2026-04-24 08:16 | 43.19142 | 121.12331 | 24509 ft | 485 kts | 60° |
| 2026-04-24 08:17 | 43.20607 | 121.16518 | 24507 ft | 484 kts | 60° |
| 2026-04-24 08:17 | 43.22044 | 121.20631 | 24507 ft | 484 kts | 60° |
| 2026-04-24 08:17 | 43.23501 | 121.24799 | 24506 ft | 485 kts | 60° |
| 2026-04-24 08:17 | 43.24955 | 121.28970 | 24501 ft | 485 kts | 60° |
| 2026-04-24 08:18 | 43.26401 | 121.33128 | 24506 ft | 484 kts | 60° |
| 2026-04-24 08:18 | 43.27842 | 121.37281 | 24505 ft | 485 kts | 60° |
| 2026-04-24 08:18 | 43.29291 | 121.41462 | 24505 ft | 485 kts | 60° |
| 2026-04-24 08:18 | 43.30729 | 121.45612 | 24506 ft | 487 kts | 60° |
| 2026-04-24 08:19 | 43.32176 | 121.49797 | 24501 ft | 487 kts | 60° |
| 2026-04-24 08:19 | 43.33626 | 121.53997 | 24504 ft | 486 kts | 60° |
| 2026-04-24 08:19 | 43.35066 | 121.58173 | 24504 ft | 485 kts | 60° |
| 2026-04-24 08:19 | 43.36502 | 121.62344 | 24505 ft | 487 kts | 60° |
| 2026-04-24 08:20 | 43.37959 | 121.66579 | 24499 ft | 488 kts | 61° |
| 2026-04-24 08:20 | 43.39395 | 121.70763 | 24501 ft | 487 kts | 61° |
| 2026-04-24 08:20 | 43.40832 | 121.74957 | 24501 ft | 487 kts | 61° |
| 2026-04-24 08:20 | 43.42278 | 121.79184 | 24500 ft | 488 kts | 61° |
| 2026-04-24 08:21 | 43.43703 | 121.83355 | 24501 ft | 488 kts | 61° |
| 2026-04-24 08:21 | 43.45151 | 121.87601 | 24501 ft | 490 kts | 61° |
| 2026-04-24 08:21 | 43.46586 | 121.91808 | 24503 ft | 489 kts | 61° |
| 2026-04-24 08:21 | 43.48033 | 121.96061 | 24499 ft | 489 kts | 61° |
| 2026-04-24 08:22 | 43.49464 | 122.00272 | 24498 ft | 489 kts | 61° |
| 2026-04-24 08:22 | 43.50893 | 122.04488 | 24500 ft | 489 kts | 61° |
| 2026-04-24 08:22 | 43.52331 | 122.08736 | 24495 ft | 491 kts | 61° |
| 2026-04-24 08:22 | 43.53702 | 122.13033 | 24493 ft | 491 kts | 64° |
| 2026-04-24 08:23 | 43.54888 | 122.17477 | 24498 ft | 493 kts | 69° |
| 2026-04-24 08:23 | 43.55763 | 122.22001 | 24499 ft | 496 kts | 75° |
| 2026-04-24 08:23 | 43.56370 | 122.26682 | 24496 ft | 499 kts | 79° |
| 2026-04-24 08:23 | 43.56794 | 122.31444 | 24493 ft | 499 kts | 82° |
| 2026-04-24 08:24 | 43.57108 | 122.36201 | 24497 ft | 499 kts | 83° |
| 2026-04-24 08:24 | 43.57367 | 122.40918 | 24494 ft | 499 kts | 84° |
| 2026-04-24 08:24 | 43.57609 | 122.45684 | 24496 ft | 499 kts | 84° |
| 2026-04-24 08:24 | 43.57846 | 122.50458 | 24481 ft | 499 kts | 84° |
| 2026-04-24 08:25 | 43.58084 | 122.55225 | 24490 ft | 498 kts | 84° |
| 2026-04-24 08:25 | 43.58325 | 122.59933 | 24481 ft | 499 kts | 84° |
| 2026-04-24 08:25 | 43.58572 | 122.64683 | 24481 ft | 499 kts | 84° |
| 2026-04-24 08:25 | 43.58823 | 122.69443 | 24482 ft | 500 kts | 85° |
| 2026-04-24 08:26 | 43.59076 | 122.74184 | 24477 ft | 500 kts | 85° |
| 2026-04-24 08:26 | 43.59331 | 122.78963 | 24476 ft | 501 kts | 85° |
| 2026-04-24 08:26 | 43.59585 | 122.83749 | 24479 ft | 499 kts | 85° |
| 2026-04-24 08:26 | 43.59838 | 122.88524 | 24483 ft | 500 kts | 85° |
| 2026-04-24 08:27 | 43.60088 | 122.93284 | 24472 ft | 500 kts | 85° |
| 2026-04-24 08:27 | 43.60337 | 122.98060 | 24474 ft | 500 kts | 85° |
| 2026-04-24 08:27 | 43.60580 | 123.02780 | 24477 ft | 499 kts | 85° |
| 2026-04-24 08:27 | 43.60822 | 123.07546 | 24479 ft | 500 kts | 85° |
| 2026-04-24 08:28 | 43.61066 | 123.12331 | 24468 ft | 499 kts | 85° |
| 2026-04-24 08:28 | 43.61308 | 123.17117 | 24470 ft | 499 kts | 85° |
| 2026-04-24 08:28 | 43.61549 | 123.21862 | 24472 ft | 500 kts | 84° |
| 2026-04-24 08:28 | 43.61823 | 123.26634 | 24464 ft | 500 kts | 84° |
| 2026-04-24 08:29 | 43.62124 | 123.31376 | 24477 ft | 501 kts | 83° |
| 2026-04-24 08:29 | 43.62445 | 123.36186 | 24464 ft | 501 kts | 83° |
| 2026-04-24 08:29 | 43.62765 | 123.40935 | 24461 ft | 499 kts | 83° |
| 2026-04-24 08:29 | 43.63083 | 123.45698 | 24461 ft | 501 kts | 83° |
| 2026-04-24 08:30 | 43.63394 | 123.50432 | 24468 ft | 501 kts | 83° |
| 2026-04-24 08:30 | 43.63705 | 123.55252 | 24457 ft | 501 kts | 83° |
| 2026-04-24 08:30 | 43.64007 | 123.60024 | 24462 ft | 501 kts | 83° |
| 2026-04-24 08:30 | 43.64304 | 123.64763 | 24468 ft | 501 kts | 84° |
| 2026-04-24 08:31 | 43.64600 | 123.69546 | 24446 ft | 501 kts | 84° |
| 2026-04-24 08:31 | 43.64894 | 123.74351 | 24462 ft | 501 kts | 84° |
| 2026-04-24 08:31 | 43.65181 | 123.79082 | 24452 ft | 502 kts | 84° |
| 2026-04-24 08:31 | 43.65467 | 123.83869 | 24456 ft | 501 kts | 85° |
| 2026-04-24 08:32 | 43.65752 | 123.88656 | 24457 ft | 501 kts | 85° |
| 2026-04-24 08:32 | 43.66036 | 123.93448 | 24456 ft | 501 kts | 84° |
| 2026-04-24 08:32 | 43.66318 | 123.98271 | 24450 ft | 502 kts | 85° |
| 2026-04-24 08:32 | 43.66595 | 124.03017 | 24451 ft | 501 kts | 84° |
| 2026-04-24 08:33 | 43.66871 | 124.07772 | 24457 ft | 501 kts | 84° |
| 2026-04-24 08:33 | 43.67146 | 124.12573 | 24445 ft | 501 kts | 84° |
| 2026-04-24 08:33 | 43.67421 | 124.17386 | 24450 ft | 502 kts | 85° |
| 2026-04-24 08:33 | 43.67661 | 124.22129 | 24444 ft | 500 kts | 87° |
| 2026-04-24 08:34 | 43.67663 | 124.26920 | 24439 ft | 500 kts | 93° |
| 2026-04-24 08:34 | 43.67176 | 124.31651 | 24440 ft | 499 kts | 104° |
| 2026-04-24 08:34 | 43.66169 | 124.36231 | 24449 ft | 497 kts | 111° |
| 2026-04-24 08:34 | 43.64926 | 124.40668 | 24437 ft | 496 kts | 114° |
| 2026-04-24 08:35 | 43.63613 | 124.45055 | 24173 ft | 499 kts | 113° |
| 2026-04-24 08:35 | 43.62513 | 124.49538 | 23671 ft | 497 kts | 106° |
| 2026-04-24 08:35 | 43.61874 | 124.54210 | 23167 ft | 489 kts | 96° |
| 2026-04-24 08:35 | 43.61753 | 124.58830 | 22655 ft | 481 kts | 88° |
| 2026-04-24 08:36 | 43.62006 | 124.63366 | 22150 ft | 472 kts | 82° |
| 2026-04-24 08:36 | 43.62428 | 124.67808 | 21661 ft | 464 kts | 81° |
| 2026-04-24 08:36 | 43.62884 | 124.72125 | 21173 ft | 457 kts | 81° |
| 2026-04-24 08:36 | 43.63318 | 124.76414 | 20679 ft | 450 kts | 82° |
| 2026-04-24 08:37 | 43.63708 | 124.80681 | 20191 ft | 443 kts | 83° |
| 2026-04-24 08:37 | 43.64046 | 124.84837 | 19712 ft | 438 kts | 84° |
| 2026-04-24 08:37 | 43.64351 | 124.89001 | 19215 ft | 434 kts | 84° |
| 2026-04-24 08:37 | 43.64680 | 124.93112 | 18735 ft | 432 kts | 82° |
| 2026-04-24 08:38 | 43.65155 | 124.97147 | 18253 ft | 430 kts | 79° |
| 2026-04-24 08:38 | 43.65736 | 125.01215 | 17779 ft | 427 kts | 77° |
| 2026-04-24 08:38 | 43.66344 | 125.05178 | 17310 ft | 424 kts | 77° |
| 2026-04-24 08:38 | 43.66956 | 125.09150 | 16837 ft | 420 kts | 77° |
| 2026-04-24 08:39 | 43.67546 | 125.13068 | 16373 ft | 414 kts | 77° |
| 2026-04-24 08:39 | 43.68294 | 125.16838 | 15909 ft | 407 kts | 69° |
| 2026-04-24 08:39 | 43.69484 | 125.20297 | 15448 ft | 400 kts | 55° |
| 2026-04-24 08:39 | 43.71108 | 125.23351 | 14992 ft | 392 kts | 48° |
| 2026-04-24 08:40 | 43.72860 | 125.26183 | 14528 ft | 387 kts | 46° |
| 2026-04-24 08:40 | 43.74668 | 125.28954 | 14068 ft | 382 kts | 44° |
| 2026-04-24 08:40 | 43.76652 | 125.31267 | 13599 ft | 371 kts | 25° |
| 2026-04-24 08:40 | 43.79022 | 125.32343 | 13150 ft | 354 kts | 360° |
| 2026-04-24 08:41 | 43.81407 | 125.32033 | 12699 ft | 337 kts | 337° |
| 2026-04-24 08:41 | 43.83505 | 125.30735 | 12258 ft | 326 kts | 322° |
| 2026-04-24 08:41 | 43.85182 | 125.28764 | 11797 ft | 314 kts | 303° |
| 2026-04-24 08:41 | 43.86156 | 125.26126 | 11350 ft | 304 kts | 282° |
| 2026-04-24 08:42 | 43.86449 | 125.23295 | 10916 ft | 299 kts | 269° |
| 2026-04-24 08:42 | 43.86261 | 125.20416 | 10444 ft | 297 kts | 254° |
| 2026-04-24 08:42 | 43.85381 | 125.17877 | 9998 ft | 295 kts | 233° |
| 2026-04-24 08:42 | 43.84046 | 125.15732 | 9565 ft | 295 kts | 229° |
| 2026-04-24 08:43 | 43.82693 | 125.13634 | 9122 ft | 294 kts | 230° |
| 2026-04-24 08:43 | 43.81351 | 125.11498 | 8675 ft | 293 kts | 230° |
| 2026-04-24 08:43 | 43.80038 | 125.09374 | 8235 ft | 292 kts | 231° |
| 2026-04-24 08:43 | 43.78721 | 125.07246 | 7792 ft | 291 kts | 229° |
| 2026-04-24 08:44 | 43.77243 | 125.05338 | 7343 ft | 293 kts | 216° |
| 2026-04-24 08:44 | 43.75380 | 125.04266 | 6980 ft | 294 kts | 192° |
| 2026-04-24 08:44 | 43.73354 | 125.04308 | 6918 ft | 285 kts | 172° |
| 2026-04-24 08:44 | 43.71563 | 125.05280 | 6912 ft | 277 kts | 152° |
| 2026-04-24 08:45 | 43.70124 | 125.06986 | 6909 ft | 268 kts | 134° |
| 2026-04-24 08:45 | 43.69156 | 125.09131 | 6913 ft | 259 kts | 117° |
| 2026-04-24 08:45 | 43.68623 | 125.11444 | 6916 ft | 248 kts | 104° |
| 2026-04-24 08:45 | 43.68456 | 125.13740 | 6928 ft | 235 kts | 92° |
| 2026-04-24 08:46 | 43.68581 | 125.15942 | 6911 ft | 230 kts | 82° |
| 2026-04-24 08:46 | 43.68948 | 125.18108 | 6915 ft | 234 kts | 71° |
| 2026-04-24 08:46 | 43.69758 | 125.20067 | 6920 ft | 236 kts | 49° |
| 2026-04-24 08:46 | 43.70853 | 125.21772 | 6829 ft | 238 kts | 45° |
| 2026-04-24 08:47 | 43.71950 | 125.23449 | 6682 ft | 237 kts | 47° |
| 2026-04-24 08:47 | 43.73018 | 125.25172 | 6455 ft | 237 kts | 48° |
| 2026-04-24 08:47 | 43.74066 | 125.26920 | 6162 ft | 237 kts | 49° |
| 2026-04-24 08:47 | 43.75108 | 125.28678 | 5889 ft | 235 kts | 49° |
| 2026-04-24 08:48 | 43.76149 | 125.30427 | 5647 ft | 232 kts | 49° |
| 2026-04-24 08:48 | 43.77155 | 125.32116 | 5428 ft | 229 kts | 49° |
| 2026-04-24 08:48 | 43.78156 | 125.33812 | 5197 ft | 227 kts | 49° |
| 2026-04-24 08:48 | 43.79165 | 125.35512 | 4964 ft | 227 kts | 48° |
| 2026-04-24 08:49 | 43.80174 | 125.37196 | 4733 ft | 226 kts | 48° |
| 2026-04-24 08:49 | 43.81163 | 125.38831 | 4503 ft | 224 kts | 47° |
| 2026-04-24 08:49 | 43.82183 | 125.40469 | 4267 ft | 223 kts | 46° |
| 2026-04-24 08:49 | 43.83192 | 125.42068 | 4039 ft | 221 kts | 46° |
| 2026-04-24 08:50 | 43.84152 | 125.43728 | 3902 ft | 219 kts | 59° |
| 2026-04-24 08:50 | 43.84493 | 125.45738 | 3907 ft | 221 kts | 97° |
| 2026-04-24 08:50 | 43.84161 | 125.47838 | 3909 ft | 227 kts | 109° |
| 2026-04-24 08:50 | 43.83703 | 125.50042 | 3908 ft | 254 kts | 108° |
| 2026-04-24 08:51 | 43.83226 | 125.52538 | 3898 ft | 280 kts | 106° |
| 2026-04-24 08:51 | 43.82725 | 125.55312 | 3930 ft | 310 kts | 105° |
| 2026-04-24 08:51 | 43.82205 | 125.58246 | 3909 ft | 317 kts | 105° |
| 2026-04-24 08:51 | 43.81684 | 125.61196 | 3908 ft | 318 kts | 105° |
| 2026-04-24 08:52 | 43.81153 | 125.64174 | 3915 ft | 318 kts | 105° |
| 2026-04-24 08:52 | 43.80609 | 125.67199 | 3927 ft | 338 kts | 106° |
| 2026-04-24 08:52 | 43.80021 | 125.70455 | 3909 ft | 356 kts | 106° |
| 2026-04-24 08:52 | 43.79415 | 125.73814 | 3908 ft | 359 kts | 106° |
| 2026-04-24 08:53 | 43.78816 | 125.77165 | 3909 ft | 360 kts | 105° |
| 2026-04-24 08:53 | 43.78448 | 125.80566 | 3909 ft | 361 kts | 95° |
| 2026-04-24 08:53 | 43.78751 | 125.84026 | 3912 ft | 363 kts | 71° |
| 2026-04-24 08:53 | 43.80045 | 125.87001 | 3914 ft | 363 kts | 45° |
| 2026-04-24 08:54 | 43.82044 | 125.89082 | 3921 ft | 360 kts | 29° |
| 2026-04-24 08:54 | 43.84222 | 125.90735 | 3911 ft | 360 kts | 25° |
| 2026-04-24 08:54 | 43.86454 | 125.92306 | 3912 ft | 360 kts | 25° |
| 2026-04-24 08:54 | 43.88700 | 125.93901 | 3909 ft | 361 kts | 25° |
| 2026-04-24 08:55 | 43.90894 | 125.95512 | 3906 ft | 352 kts | 26° |
| 2026-04-24 08:55 | 43.92987 | 125.97094 | 3906 ft | 333 kts | 26° |
| 2026-04-24 08:55 | 43.94957 | 125.98602 | 3910 ft | 314 kts | 26° |
| 2026-04-24 08:55 | 43.96819 | 126.00038 | 3910 ft | 298 kts | 26° |
| 2026-04-24 08:56 | 43.98588 | 126.01411 | 3787 ft | 287 kts | 26° |
| 2026-04-24 08:56 | 44.00306 | 126.02744 | 3590 ft | 280 kts | 26° |
| 2026-04-24 08:56 | 44.01977 | 126.04037 | 3398 ft | 273 kts | 26° |
| 2026-04-24 08:56 | 44.03604 | 126.05291 | 3315 ft | 262 kts | 26° |
| 2026-04-24 08:57 | 44.05161 | 126.06493 | 3300 ft | 249 kts | 25° |
| 2026-04-24 08:57 | 44.06685 | 126.07461 | 3288 ft | 229 kts | 5° |
| 2026-04-24 08:57 | 44.08133 | 126.07280 | 3315 ft | 199 kts | 330° |
| 2026-04-24 08:57 | 44.09245 | 126.06324 | 3311 ft | 182 kts | 314° |
| 2026-04-24 08:58 | 44.10101 | 126.05095 | 3300 ft | 174 kts | 301° |
| 2026-04-24 08:58 | 44.10701 | 126.03635 | 3299 ft | 172 kts | 287° |
| 2026-04-24 08:58 | 44.10984 | 126.02080 | 3288 ft | 163 kts | 275° |
| 2026-04-24 08:58 | 44.11136 | 126.00550 | 3286 ft | 157 kts | 276° |
| 2026-04-24 08:59 | 44.11319 | 125.99036 | 3296 ft | 159 kts | 277° |
| 2026-04-24 08:59 | 44.11518 | 125.97514 | 3290 ft | 160 kts | 277° |
| 2026-04-24 08:59 | 44.11709 | 125.96013 | 3287 ft | 159 kts | 276° |
| 2026-04-24 08:59 | 44.11898 | 125.94492 | 3289 ft | 161 kts | 276° |
| 2026-04-24 09:00 | 44.12086 | 125.92948 | 3286 ft | 160 kts | 276° |
| 2026-04-24 09:00 | 44.12273 | 125.91427 | 3288 ft | 160 kts | 276° |
| 2026-04-24 09:00 | 44.12425 | 125.89903 | 3287 ft | 159 kts | 268° |
| 2026-04-24 09:00 | 44.12126 | 125.88457 | 3286 ft | 158 kts | 233° |
| 2026-04-24 09:01 | 44.11363 | 125.87381 | 3298 ft | 155 kts | 230° |
| 2026-04-24 09:01 | 44.10666 | 125.86301 | 3278 ft | 148 kts | 233° |
| 2026-04-24 09:01 | 44.09997 | 125.85215 | 3293 ft | 148 kts | 232° |
| 2026-04-24 09:01 | 44.09316 | 125.84117 | 3221 ft | 150 kts | 233° |
| 2026-04-24 09:02 | 44.08658 | 125.83061 | 3019 ft | 138 kts | 233° |
| 2026-04-24 09:02 | 44.08067 | 125.82108 | 2868 ft | 130 kts | 233° |
| 2026-04-24 09:02 | 44.07472 | 125.81145 | 2686 ft | 131 kts | 233° |
| 2026-04-24 09:02 | 44.06871 | 125.80173 | 2501 ft | 133 kts | 233° |
| 2026-04-24 09:03 | 44.06269 | 125.79199 | 2320 ft | 133 kts | 233° |
| 2026-04-24 09:03 | 44.05672 | 125.78243 | 2139 ft | 129 kts | 234° |
| 2026-04-24 09:03 | 44.05096 | 125.77314 | 1975 ft | 131 kts | 233° |
| 2026-04-24 09:03 | 44.04495 | 125.76339 | 1815 ft | 134 kts | 235° |
| 2026-04-24 09:04 | 44.03890 | 125.75363 | 1606 ft | 131 kts | 234° |
| 2026-04-24 09:04 | 44.03302 | 125.74429 | 1455 ft | 127 kts | 235° |
| 2026-04-24 09:04 | 44.02732 | 125.73487 | 1251 ft | 128 kts | 234° |
| 2026-04-24 09:04 | 44.02144 | 125.72555 | 1078 ft | 129 kts | 232° |
| 2026-04-24 09:05 | 44.01544 | 125.71652 | 941 ft | 125 kts | 233° |
| 2026-04-24 09:05 | 44.00986 | 125.70715 | 744 ft | 128 kts | 232° |
| 2026-04-24 09:05 | 44.00402 | 125.69776 | 646 ft | 125 kts | 234° |
| 2026-04-24 09:05 | 43.99952 | 125.69002 | 659 ft | 70 kts | 226° |
| 2026-04-24 09:06 | 43.99746 | 125.68677 | 672 ft | 33 kts | 230° |
| 2026-04-24 09:06 | 43.99604 | 125.68465 | 682 ft | 26 kts | 220° |
| 2026-04-24 09:06 | 43.99461 | 125.68363 | 688 ft | 21 kts | 203° |
| 2026-04-24 09:06 | 43.99349 | 125.68370 | 688 ft | 15 kts | 114° |
| 2026-04-24 09:07 | 43.99343 | 125.68530 | 682 ft | 18 kts | 134° |
| 2026-04-24 09:07 | 43.99276 | 125.68658 | 677 ft | 12 kts | 136° |
| 2026-04-24 09:07 | 43.99224 | 125.68720 | 674 ft | 0 kts | 140° |